createdAt,value
2023-04-20T00:00:50.440Z,2.40
2023-04-20T00:03:22.138Z,2.10
2023-04-20T00:05:50.216Z,2.50
2023-04-20T00:08:18.848Z,2.80
2023-04-20T00:10:47.012Z,2.20
2023-04-20T00:13:14.992Z,2.90
2023-04-20T00:15:42.933Z,2.60
2023-04-20T00:18:11.521Z,2.60
2023-04-20T00:20:39.453Z,2.60
2023-04-20T00:23:07.810Z,2.50
2023-04-20T00:25:36.398Z,2.70
2023-04-20T00:28:05.214Z,2.60
2023-04-20T00:30:34.959Z,2.60
2023-04-20T00:33:03.124Z,2.50
2023-04-20T00:35:31.212Z,3.00
2023-04-20T00:37:59.263Z,2.50
2023-04-20T00:40:27.188Z,2.50
2023-04-20T00:42:55.073Z,2.60
2023-04-20T00:45:24.598Z,2.30
2023-04-20T00:47:52.531Z,2.40
2023-04-20T00:50:21.877Z,2.60
2023-04-20T00:52:49.831Z,2.70
2023-04-20T00:55:19.237Z,2.60
2023-04-20T00:57:47.102Z,2.40
2023-04-20T01:00:15.188Z,2.40
2023-04-20T01:02:43.943Z,2.40
2023-04-20T01:05:12.375Z,2.70
2023-04-20T01:07:41.029Z,2.40
2023-04-20T01:10:09.310Z,3.20
2023-04-20T01:12:40.541Z,2.60
2023-04-20T01:15:09.063Z,2.70
2023-04-20T01:17:39.748Z,2.40
2023-04-20T01:20:09.378Z,2.30
2023-04-20T01:22:50.283Z,3.30
2023-04-20T01:25:18.372Z,2.30
2023-04-20T01:27:47.815Z,2.50
2023-04-20T01:30:15.813Z,2.40
2023-04-20T01:32:43.845Z,2.50
2023-04-20T01:35:12.244Z,2.40
2023-04-20T01:37:40.608Z,2.70
2023-04-20T01:40:09.947Z,2.40
2023-04-20T01:42:38.309Z,2.80
2023-04-20T01:45:07.216Z,2.60
2023-04-20T01:47:36.724Z,2.10
2023-04-20T01:50:05.102Z,2.60
2023-04-20T01:52:33.063Z,2.50
2023-04-20T01:55:01.052Z,2.60
2023-04-20T01:57:29.094Z,2.80
2023-04-20T01:59:57.046Z,2.50
2023-04-20T02:02:25.003Z,2.50
2023-04-20T02:04:53.979Z,2.70
2023-04-20T02:07:21.997Z,2.30
2023-04-20T02:09:49.945Z,2.70
2023-04-20T02:12:17.889Z,2.20
2023-04-20T02:14:45.711Z,2.40
2023-04-20T02:17:15.645Z,2.80
2023-04-20T02:19:43.867Z,2.50
2023-04-20T02:22:11.675Z,2.60
2023-04-20T02:24:39.497Z,2.60
2023-04-20T02:27:07.514Z,2.60
2023-04-20T02:29:35.614Z,2.40
2023-04-20T02:32:03.819Z,2.20
2023-04-20T02:34:31.584Z,2.50
2023-04-20T02:36:59.553Z,2.90
2023-04-20T02:39:27.414Z,2.70
2023-04-20T02:41:56.110Z,2.30
2023-04-20T02:44:24.680Z,2.40
2023-04-20T02:46:52.746Z,2.40
2023-04-20T02:49:21.171Z,2.40
2023-04-20T02:51:49.238Z,2.80
2023-04-20T02:54:17.084Z,2.40
2023-04-20T02:56:45.350Z,2.60
2023-04-20T02:59:13.326Z,2.60
2023-04-20T03:01:59.617Z,2.80
2023-04-20T03:04:27.965Z,2.80
2023-04-20T03:07:01.420Z,2.70
2023-04-20T03:09:31.265Z,2.70
2023-04-20T03:11:59.072Z,2.60
2023-04-20T03:14:56.081Z,2.70
2023-04-20T03:17:30.770Z,2.70
2023-04-20T03:19:58.711Z,2.70
2023-04-20T03:22:26.806Z,2.40
2023-04-20T03:24:57.291Z,2.70
2023-04-20T03:27:40.416Z,2.60
2023-04-20T03:30:12.420Z,2.60
2023-04-20T03:32:42.043Z,2.10
2023-04-20T03:35:10.397Z,2.90
2023-04-20T03:37:38.402Z,2.90
2023-04-20T03:40:08.700Z,2.70
2023-04-20T03:42:37.679Z,2.30
2023-04-20T03:45:06.790Z,2.40
2023-04-20T03:47:35.165Z,2.20
2023-04-20T03:50:03.263Z,2.30
2023-04-20T03:52:31.459Z,2.40
2023-04-20T03:55:01.898Z,2.70
2023-04-20T03:57:29.896Z,2.60
2023-04-20T03:59:57.784Z,2.40
2023-04-20T04:02:27.248Z,2.60
2023-04-20T04:04:55.688Z,2.30
2023-04-20T04:07:24.174Z,2.20
2023-04-20T04:09:52.143Z,2.10
2023-04-20T04:12:20.023Z,2.50
2023-04-20T04:14:48.509Z,2.30
2023-04-20T04:17:17.378Z,2.60
2023-04-20T04:21:13.536Z,2.30
2023-04-20T04:23:43.816Z,2.80
2023-04-20T04:26:24.818Z,2.90
2023-04-20T04:28:53.539Z,2.40
2023-04-20T04:31:23.691Z,2.40
2023-04-20T04:33:52.312Z,2.30
2023-04-20T04:36:27.999Z,2.70
2023-04-20T04:38:57.520Z,2.60
2023-04-20T04:41:25.985Z,2.90
2023-04-20T04:43:54.838Z,3.40
2023-04-20T04:46:27.799Z,2.90
2023-04-20T04:49:01.256Z,2.80
2023-04-20T04:51:29.458Z,2.70
2023-04-20T04:53:57.402Z,2.60
2023-04-20T04:56:25.741Z,2.70
2023-04-20T04:58:53.586Z,2.90
2023-04-20T05:01:21.471Z,2.80
2023-04-20T05:03:49.707Z,2.90
2023-04-20T05:06:17.689Z,2.80
2023-04-20T05:08:46.453Z,2.60
2023-04-20T05:11:14.428Z,2.70
2023-04-20T05:13:42.615Z,2.90
2023-04-20T05:16:11.381Z,2.80
2023-04-20T05:18:39.558Z,2.60
2023-04-20T05:21:07.424Z,2.90
2023-04-20T05:23:36.302Z,2.70
2023-04-20T05:26:04.550Z,2.90
2023-04-20T05:28:35.825Z,2.70
2023-04-20T05:31:03.620Z,2.40
2023-04-20T05:33:31.653Z,2.50
2023-04-20T05:35:59.662Z,2.90
2023-04-20T05:38:28.009Z,3.00
2023-04-20T05:40:56.132Z,3.10
2023-04-20T05:43:24.048Z,3.00
2023-04-20T05:45:52.125Z,2.60
2023-04-20T05:48:20.551Z,2.90
2023-04-20T05:50:48.398Z,3.00
2023-04-20T05:53:16.225Z,2.90
2023-04-20T05:55:44.198Z,2.80
2023-04-20T05:58:12.331Z,2.80
2023-04-20T06:00:40.803Z,3.70
2023-04-20T06:03:09.030Z,3.00
2023-04-20T06:05:37.482Z,2.90
2023-04-20T06:08:05.969Z,2.80
2023-04-20T06:10:34.823Z,3.00
2023-04-20T06:13:02.755Z,3.10
2023-04-20T06:15:30.946Z,3.20
2023-04-20T06:17:59.017Z,3.60
2023-04-20T06:20:26.972Z,3.00
2023-04-20T06:22:55.596Z,3.70
2023-04-20T06:25:23.494Z,3.10
2023-04-20T06:27:52.801Z,3.20
2023-04-20T06:30:20.991Z,3.10
2023-04-20T06:32:49.196Z,3.30
2023-04-20T06:35:17.150Z,3.10
2023-04-20T06:37:45.623Z,3.20
2023-04-20T06:40:16.153Z,3.30
2023-04-20T06:42:45.781Z,3.10
2023-04-20T06:45:13.800Z,3.20
2023-04-20T06:47:41.824Z,3.30
2023-04-20T06:50:10.217Z,2.90
2023-04-20T06:52:39.007Z,3.10
2023-04-20T06:55:07.470Z,3.30
2023-04-20T06:57:35.552Z,3.40
2023-04-20T07:00:03.973Z,2.90
2023-04-20T07:02:50.793Z,3.20
2023-04-20T07:05:19.087Z,3.70
2023-04-20T07:07:47.200Z,3.30
2023-04-20T07:10:15.530Z,3.00
2023-04-20T07:12:44.119Z,3.60
2023-04-20T07:15:12.794Z,3.20
2023-04-20T07:17:40.870Z,3.20
2023-04-20T07:20:09.582Z,3.30
2023-04-20T07:22:38.444Z,3.10
2023-04-20T07:25:07.762Z,3.40
2023-04-20T07:27:37.561Z,2.90
2023-04-20T07:30:07.223Z,3.20
2023-04-20T07:32:36.098Z,3.00
2023-04-20T07:35:04.662Z,2.90
2023-04-20T07:37:33.335Z,3.10
2023-04-20T07:40:02.033Z,3.00
2023-04-20T07:42:31.579Z,2.90
2023-04-20T07:44:59.499Z,3.20
2023-04-20T07:47:27.720Z,2.70
2023-04-20T07:49:57.576Z,2.60
2023-04-20T07:52:25.992Z,3.30
2023-04-20T07:54:53.940Z,2.80
2023-04-20T07:57:21.819Z,3.10
2023-04-20T07:59:49.756Z,2.70
2023-04-20T08:02:17.943Z,3.20
2023-04-20T08:04:46.679Z,2.50
2023-04-20T08:07:15.139Z,2.80
2023-04-20T08:09:43.199Z,2.80
2023-04-20T08:12:12.267Z,2.60
2023-04-20T08:14:41.311Z,3.20
2023-04-20T08:17:09.375Z,2.70
2023-04-20T08:19:37.491Z,2.60
2023-04-20T08:22:05.768Z,2.70
2023-04-20T08:24:34.445Z,2.70
2023-04-20T08:27:02.353Z,2.50
2023-04-20T08:29:30.930Z,2.80
2023-04-20T08:31:58.903Z,2.30
2023-04-20T08:34:27.199Z,3.10
2023-04-20T08:36:55.651Z,2.80
2023-04-20T08:39:24.482Z,3.30
2023-04-20T08:41:55.561Z,3.30
2023-04-20T08:44:24.478Z,3.70
2023-04-20T08:46:52.352Z,3.30
2023-04-20T08:49:21.217Z,2.90
2023-04-20T08:51:49.413Z,3.10
2023-04-20T08:54:17.866Z,2.90
2023-04-20T08:56:47.145Z,3.00
2023-04-20T08:59:16.365Z,3.10
2023-04-20T09:01:44.689Z,3.50
2023-04-20T09:04:27.018Z,2.80
2023-04-20T09:06:55.897Z,3.20
2023-04-20T09:09:25.279Z,2.90
2023-04-20T09:12:07.656Z,3.30
2023-04-20T09:14:47.085Z,3.40
2023-04-20T09:17:16.033Z,2.90
2023-04-20T09:19:44.724Z,2.80
2023-04-20T09:22:12.745Z,3.20
2023-04-20T09:24:41.478Z,3.10
2023-04-20T09:27:22.648Z,2.80
2023-04-20T09:30:00.418Z,3.00
2023-04-20T09:32:29.595Z,3.20
2023-04-20T09:34:57.629Z,2.90
2023-04-20T09:37:25.791Z,3.40
2023-04-20T09:39:55.981Z,3.50
2023-04-20T09:42:23.792Z,2.90
2023-04-20T09:44:51.543Z,2.90
2023-04-20T09:47:19.683Z,2.80
2023-04-20T09:49:47.798Z,3.20
2023-04-20T09:52:17.342Z,3.10
2023-04-20T09:54:45.452Z,2.90
2023-04-20T09:57:14.045Z,2.60
2023-04-20T09:59:46.790Z,2.70
2023-04-20T10:02:15.022Z,2.80
2023-04-20T10:04:58.717Z,2.80
2023-04-20T10:07:31.853Z,3.10
2023-04-20T10:10:11.334Z,2.50
2023-04-20T10:12:54.615Z,4.10
2023-04-20T10:15:24.278Z,2.90
2023-04-20T10:17:53.491Z,2.90
2023-04-20T10:20:26.406Z,3.40
2023-04-20T10:23:06.743Z,3.00
2023-04-20T10:25:34.509Z,3.30
2023-04-20T10:28:05.492Z,2.80
2023-04-20T10:30:33.588Z,2.80
2023-04-20T10:33:03.373Z,3.50
2023-04-20T10:35:51.224Z,2.90
2023-04-20T10:38:30.480Z,2.80
2023-04-20T10:41:12.134Z,2.80
2023-04-20T10:43:43.351Z,2.70
2023-04-20T10:46:18.287Z,2.90
2023-04-20T10:48:50.380Z,3.00
2023-04-20T10:51:18.694Z,3.00
2023-04-20T10:53:46.510Z,2.80
2023-04-20T10:56:14.421Z,3.00
2023-04-20T10:58:43.026Z,3.20
2023-04-20T11:01:11.177Z,2.50
2023-04-20T11:03:39.149Z,2.80
2023-04-20T11:06:07.732Z,3.10
2023-04-20T11:08:43.328Z,2.90
2023-04-20T11:11:21.316Z,3.10
2023-04-20T11:13:49.198Z,2.90
2023-04-20T11:16:18.292Z,2.40
2023-04-20T11:18:52.099Z,2.90
2023-04-20T11:21:21.880Z,2.90
2023-04-20T11:23:50.293Z,2.40
2023-04-20T11:26:18.869Z,2.80
2023-04-20T11:28:56.477Z,2.60
2023-04-20T11:31:26.365Z,3.10
2023-04-20T11:33:54.377Z,3.00
2023-04-20T11:36:23.589Z,2.70
2023-04-20T11:38:51.490Z,3.10
2023-04-20T11:41:19.473Z,2.80
2023-04-20T11:43:47.403Z,2.80
2023-04-20T11:46:17.156Z,3.30
2023-04-20T11:48:45.927Z,3.60
2023-04-20T11:51:14.323Z,2.70
2023-04-20T11:53:42.746Z,2.90
2023-04-20T11:56:10.815Z,2.90
2023-04-20T11:58:38.674Z,2.80
2023-04-20T12:01:06.864Z,2.90
2023-04-20T12:03:35.119Z,2.70
2023-04-20T12:06:04.872Z,2.80
2023-04-20T12:08:33.129Z,2.70
2023-04-20T12:11:00.985Z,3.10
2023-04-20T12:13:29.060Z,2.90
2023-04-20T12:15:56.960Z,2.90
2023-04-20T12:18:25.198Z,3.50
2023-04-20T12:20:53.268Z,3.00
2023-04-20T12:23:21.197Z,2.90
2023-04-20T12:25:49.622Z,3.00
2023-04-20T12:28:17.834Z,3.10
2023-04-20T12:30:46.205Z,2.50
2023-04-20T12:33:14.373Z,2.60
2023-04-20T12:35:42.438Z,2.40
2023-04-20T12:38:11.769Z,2.70
2023-04-20T12:40:41.134Z,2.50
2023-04-20T12:43:09.220Z,2.70
2023-04-20T12:45:37.119Z,2.60
2023-04-20T12:48:05.204Z,2.50
2023-04-20T12:50:33.657Z,2.50
2023-04-20T12:53:02.573Z,2.70
2023-04-20T12:55:30.774Z,2.40
2023-04-20T12:57:58.846Z,3.30
2023-04-20T13:00:26.795Z,2.70
2023-04-20T13:02:54.892Z,2.60
2023-04-20T13:05:22.976Z,2.50
2023-04-20T13:07:51.645Z,2.70
2023-04-20T13:10:19.490Z,2.70
2023-04-20T13:12:48.235Z,2.40
2023-04-20T13:15:31.807Z,2.40
2023-04-20T13:18:06.651Z,2.80
2023-04-20T13:20:34.860Z,2.50
2023-04-20T13:23:03.630Z,2.80
2023-04-20T13:25:34.653Z,2.50
2023-04-20T13:28:03.105Z,2.60
2023-04-20T13:30:30.993Z,2.80
2023-04-20T13:32:58.951Z,2.20
2023-04-20T13:35:26.826Z,3.60
2023-04-20T13:37:54.818Z,2.20
2023-04-20T13:40:22.834Z,2.30
2023-04-20T13:42:50.838Z,3.00
2023-04-20T13:45:18.795Z,2.10
2023-04-20T13:47:46.947Z,2.10
2023-04-20T13:50:14.834Z,2.20
2023-04-20T13:52:42.698Z,2.20
2023-04-20T13:55:11.256Z,2.00
2023-04-20T13:57:39.553Z,2.30
2023-04-20T14:00:08.342Z,2.30
2023-04-20T14:02:36.887Z,2.20
2023-04-20T14:05:06.417Z,2.40
2023-04-20T14:07:34.470Z,2.40
2023-04-20T14:10:02.816Z,2.50
2023-04-20T14:12:33.690Z,2.10
2023-04-20T14:15:02.505Z,2.00
2023-04-20T14:17:30.736Z,2.50
2023-04-20T14:19:59.496Z,2.80
2023-04-20T14:22:32.188Z,2.40
2023-04-20T14:25:00.496Z,2.00
2023-04-20T14:27:28.387Z,2.30
2023-04-20T14:29:56.430Z,2.20
2023-04-20T14:32:24.385Z,2.00
2023-04-20T14:34:52.316Z,2.60
2023-04-20T14:37:20.303Z,2.60
2023-04-20T14:39:48.655Z,2.40
2023-04-20T14:42:16.513Z,2.20
2023-04-20T14:44:44.487Z,2.60
2023-04-20T14:47:12.347Z,2.70
2023-04-20T14:49:40.236Z,2.60
2023-04-20T14:52:08.097Z,2.60
2023-04-20T14:54:36.677Z,2.50
2023-04-20T14:57:04.605Z,2.80
2023-04-20T14:59:33.909Z,2.80
2023-04-20T15:02:03.513Z,2.90
2023-04-20T15:04:32.557Z,2.40
2023-04-20T15:07:00.761Z,2.80
2023-04-20T15:09:28.937Z,3.00
2023-04-20T15:11:57.170Z,2.90
2023-04-20T15:14:25.194Z,3.00
2023-04-20T15:16:53.256Z,2.60
2023-04-20T15:19:22.717Z,2.60
2023-04-20T15:21:50.625Z,2.80
2023-04-20T15:24:18.754Z,3.00
2023-04-20T15:26:46.999Z,2.70
2023-04-20T15:29:14.990Z,3.20
2023-04-20T15:31:45.593Z,2.90
2023-04-20T15:34:15.596Z,2.60
2023-04-20T15:36:43.764Z,2.90
2023-04-20T15:39:12.517Z,2.60
2023-04-20T15:41:40.459Z,2.40
2023-04-20T15:44:08.302Z,2.70
2023-04-20T15:46:37.601Z,2.60
2023-04-20T15:49:05.561Z,2.70
2023-04-20T15:51:34.429Z,2.60
2023-04-20T15:54:02.264Z,2.90
2023-04-20T15:56:31.097Z,2.90
2023-04-20T15:58:58.981Z,2.80
2023-04-20T16:01:26.957Z,2.80
2023-04-20T16:03:55.163Z,3.10
2023-04-20T16:06:24.203Z,2.70
2023-04-20T16:08:54.014Z,3.00
2023-04-20T16:11:22.578Z,2.90
2023-04-20T16:13:50.591Z,3.00
2023-04-20T16:16:18.946Z,2.80
2023-04-20T16:18:48.185Z,3.10
2023-04-20T16:21:16.175Z,2.90
2023-04-20T16:23:44.153Z,2.80
2023-04-20T16:26:11.981Z,3.00
2023-04-20T16:28:39.841Z,3.50
2023-04-20T16:31:07.753Z,3.10
2023-04-20T16:33:36.607Z,3.40
2023-04-20T16:36:05.148Z,3.70
2023-04-20T16:39:13.352Z,3.60
2023-04-20T16:41:41.369Z,4.50
2023-04-20T16:44:09.450Z,5.60
2023-04-20T16:46:37.709Z,5.00
2023-04-20T16:49:05.589Z,6.30
2023-04-20T16:51:33.801Z,5.80
2023-04-20T16:54:01.894Z,6.50
2023-04-20T16:56:29.865Z,4.80
2023-04-20T16:58:58.260Z,4.80
2023-04-20T17:01:26.117Z,4.60
2023-04-20T17:03:54.218Z,4.10
2023-04-20T17:06:22.346Z,5.80
2023-04-20T17:08:50.447Z,6.40
2023-04-20T17:11:19.629Z,5.10
2023-04-20T17:13:47.701Z,6.30
2023-04-20T17:16:16.490Z,5.60
2023-04-20T17:18:44.980Z,5.40
2023-04-20T17:21:12.932Z,5.50
2023-04-20T17:23:41.284Z,8.80
2023-04-20T17:26:09.179Z,10.60
2023-04-20T17:28:37.017Z,8.90
2023-04-20T17:31:04.824Z,6.70
2023-04-20T17:33:32.768Z,6.70
2023-04-20T17:36:01.356Z,9.00
2023-04-20T17:38:29.249Z,8.20
2023-04-20T17:40:57.158Z,7.90
2023-04-20T17:43:25.102Z,8.70
2023-04-20T17:45:53.066Z,7.90
2023-04-20T17:48:20.959Z,6.60
2023-04-20T17:50:49.737Z,5.90
2023-04-20T17:53:17.686Z,8.20
2023-04-20T17:55:45.886Z,8.00
2023-04-20T17:58:13.808Z,8.00
2023-04-20T18:00:43.070Z,7.80
2023-04-20T18:03:11.232Z,12.70
2023-04-20T18:05:39.313Z,11.00
2023-04-20T18:08:07.417Z,10.90
2023-04-20T18:10:35.787Z,10.00
2023-04-20T18:13:03.561Z,8.20
2023-04-20T18:15:31.460Z,6.10
2023-04-20T18:17:59.546Z,4.50
2023-04-20T18:20:27.534Z,4.20
2023-04-20T18:22:55.518Z,4.80
2023-04-20T18:25:23.478Z,4.90
2023-04-20T18:27:51.373Z,5.90
2023-04-20T18:30:19.209Z,6.60
2023-04-20T18:32:47.177Z,5.10
2023-04-20T18:35:15.721Z,4.70
2023-04-20T18:37:43.570Z,6.70
2023-04-20T18:40:13.079Z,5.50
2023-04-20T18:42:42.639Z,3.80
2023-04-20T18:45:13.207Z,5.50
2023-04-20T18:47:41.264Z,6.20
2023-04-20T18:50:10.508Z,5.30
2023-04-20T18:52:38.490Z,5.40
2023-04-20T18:55:07.908Z,5.60
2023-04-20T18:57:35.822Z,5.90
2023-04-20T19:00:08.443Z,5.80
2023-04-20T19:02:37.116Z,5.80
2023-04-20T19:05:05.906Z,5.20
2023-04-20T19:07:33.764Z,5.80
2023-04-20T19:10:01.802Z,5.50
2023-04-20T19:12:30.078Z,5.70
2023-04-20T19:14:57.958Z,5.90
2023-04-20T19:17:26.178Z,5.50
2023-04-20T19:19:55.317Z,8.00
2023-04-20T19:22:23.382Z,9.80
2023-04-20T19:24:51.448Z,11.70
2023-04-20T19:27:19.536Z,12.80
2023-04-20T19:29:47.731Z,12.40
2023-04-20T19:32:15.691Z,12.80
2023-04-20T19:34:43.966Z,12.80
2023-04-20T19:37:12.145Z,12.10
2023-04-20T19:39:40.352Z,11.00
2023-04-20T19:42:08.179Z,10.40
2023-04-20T19:44:36.124Z,10.60
2023-04-20T19:47:04.329Z,7.00
2023-04-20T19:49:32.691Z,6.80
2023-04-20T19:52:00.791Z,5.50
2023-04-20T19:54:28.870Z,5.40
2023-04-20T19:56:57.785Z,5.20
2023-04-20T19:59:26.815Z,4.40
2023-04-20T20:01:54.779Z,4.50
2023-04-20T20:04:22.899Z,4.40
2023-04-20T20:06:51.399Z,4.10
2023-04-20T20:09:23.130Z,3.70
2023-04-20T20:11:51.947Z,3.70
2023-04-20T20:14:19.974Z,4.20
2023-04-20T20:16:49.261Z,4.00
2023-04-20T20:19:25.003Z,5.90
2023-04-20T20:21:53.758Z,7.50
2023-04-20T20:24:23.181Z,13.90
2023-04-20T20:26:51.218Z,5.70
2023-04-20T20:29:19.614Z,4.50
2023-04-20T20:31:47.857Z,4.50
2023-04-20T20:34:16.106Z,4.40
2023-04-20T20:36:45.950Z,4.70
2023-04-20T20:39:14.394Z,4.70
2023-04-20T20:41:42.449Z,4.30
2023-04-20T20:44:10.503Z,5.10
2023-04-20T20:46:38.809Z,4.60
2023-04-20T20:49:06.933Z,4.60
2023-04-20T20:51:35.164Z,4.50
2023-04-20T20:54:03.355Z,4.50
2023-04-20T20:56:31.541Z,4.80
2023-04-20T20:58:59.652Z,4.30
2023-04-20T21:01:27.539Z,4.20
2023-04-20T21:03:55.961Z,3.90
2023-04-20T21:06:23.940Z,3.90
2023-04-20T21:08:51.790Z,3.10
2023-04-20T21:11:19.760Z,2.60
2023-04-20T21:13:47.736Z,2.80
2023-04-20T21:16:15.671Z,2.60
2023-04-20T21:18:43.611Z,2.80
2023-04-20T21:21:12.816Z,3.20
2023-04-20T21:23:40.915Z,3.20
2023-04-20T21:26:09.164Z,3.10
2023-04-20T21:28:37.121Z,2.70
2023-04-20T21:31:05.168Z,3.00
2023-04-20T21:33:36.095Z,2.80
2023-04-20T21:36:04.337Z,3.10
2023-04-20T21:38:33.823Z,3.60
2023-04-20T21:41:01.751Z,4.00
2023-04-20T21:43:29.762Z,4.30
2023-04-20T21:45:57.691Z,3.70
2023-04-20T21:48:25.803Z,3.70
2023-04-20T21:50:53.725Z,3.50
2023-04-20T21:53:21.701Z,3.10
2023-04-20T21:55:49.670Z,3.50
2023-04-20T21:58:18.715Z,3.20
2023-04-20T22:00:46.829Z,3.30
2023-04-20T22:03:14.830Z,2.70
2023-04-20T22:05:43.173Z,2.80
2023-04-20T22:08:11.683Z,2.80
2023-04-20T22:10:40.128Z,3.10
2023-04-20T22:13:08.088Z,2.80
2023-04-20T22:15:36.330Z,3.50
2023-04-20T22:18:05.641Z,3.30
2023-04-20T22:20:33.787Z,3.70
2023-04-20T22:23:01.889Z,3.20
2023-04-20T22:25:29.946Z,3.30
2023-04-20T22:27:58.080Z,3.10
2023-04-20T22:30:26.037Z,3.20
2023-04-20T22:32:54.111Z,3.10
2023-04-20T22:35:22.461Z,3.20
2023-04-20T22:37:50.534Z,2.80
2023-04-20T22:40:18.727Z,2.70
2023-04-20T22:42:46.690Z,2.60
2023-04-20T22:45:14.913Z,2.40
2023-04-20T22:47:43.008Z,2.90
2023-04-20T22:50:12.485Z,3.00
2023-04-20T22:52:40.620Z,2.60
2023-04-20T22:55:09.398Z,3.20
2023-04-20T22:57:37.375Z,3.10
2023-04-20T23:00:07.979Z,3.00
2023-04-20T23:02:37.560Z,2.90
2023-04-20T23:05:06.591Z,3.20
2023-04-20T23:07:35.927Z,3.00
2023-04-20T23:10:04.757Z,2.90
2023-04-20T23:12:33.585Z,3.00
2023-04-20T23:15:01.514Z,3.30
2023-04-20T23:17:29.753Z,2.70
2023-04-20T23:19:58.410Z,2.90
2023-04-20T23:22:26.855Z,3.00
2023-04-20T23:24:57.347Z,2.60
2023-04-20T23:27:25.354Z,2.70
2023-04-20T23:29:53.219Z,3.00
2023-04-20T23:32:21.211Z,2.90
2023-04-20T23:34:49.084Z,3.00
2023-04-20T23:37:16.907Z,2.60
2023-04-20T23:39:44.736Z,3.00
2023-04-20T23:42:12.654Z,2.60
2023-04-20T23:44:40.508Z,2.60
2023-04-20T23:47:08.312Z,2.60
2023-04-20T23:49:36.444Z,2.70
2023-04-20T23:52:05.063Z,2.50
2023-04-20T23:54:33.500Z,2.70
2023-04-20T23:57:02.780Z,2.70
2023-04-20T23:59:31.648Z,2.50
